Prospector II — ELHZ4 — position and weather

sailwx.info

Track history (hours):
 
Tides and Currents Weather Stations Pressure Air Temp Water Temp Dewpoint Dewpoint Depression Visibility Wind Speed Wind Dir Waves Ship Positions

Prospector II

Last reported at 2018-Jan-20 11:33 UTC. Time now 2018-Feb-21 19:37 UTC.
Position N 38°24' E 025°09'.
Warning: this ship's position is 32 days out of date.

Length 209 m; draft 7.3 m.

Type: Tanker. MMSI: 636008251.

Date/timePositionNaut miles runAvg speedWind from/ knotsBaromVisibWave heightAir tempDewpointWater temp
2018-Jan-20 11:33N 38°24' E 025°09'114.4
2018-Jan-20 11:30N 38°24' E 025°09'1811.7
2018-Jan-20 09:56N 38°11' E 024°51'713.4
2018-Jan-20 09:26N 38°15' E 024°58'23 7.9
2018-Jan-20 06:33N 37°58' E 024°39'112.8
2018-Jan-20 06:30N 37°58' E 024°39'613.0
2018-Jan-20 06:01N 37°52' E 024°36'713.1
2018-Jan-20 05:30N 37°46' E 024°32'713.7
2018-Jan-20 05:00N 37°40' E 024°29'713.6
2018-Jan-20 04:30N 37°33' E 024°26'713.2
2018-Jan-20 04:00N 37°28' E 024°21'713.9
2018-Jan-20 03:31N 37°23' E 024°14'713.4
2018-Jan-20 03:01N 37°17' E 024°11'713.8
2018-Jan-20 02:31N 37°11' E 024°09'714.0
2018-Jan-20 02:01N 37°04' E 024°06'714.0
2018-Jan-20 01:30N 36°57' E 024°04'713.8
2018-Jan-20 01:00N 36°50' E 024°01'713.5
2018-Jan-20 00:30N 36°45' E 023°57'713.9
2018-Jan-20 00:00N 36°40' E 023°51'714.1
2018-Jan-19 23:30N 36°34' E 023°45'426 9.8
2018-Jan-18 04:14N 36°25' E 014°56'814.1
2018-Jan-18 03:40N 36°26' E 014°46'313.9
2018-Jan-18 03:28N 36°26' E 014°42'613.7
2018-Jan-18 03:00N 36°27' E 014°34'713.5
2018-Jan-18 02:29N 36°27' E 014°26'713.4
2018-Jan-18 02:00N 36°27' E 014°18'613.1
2018-Jan-18 01:30N 36°28' E 014°10'712.9
2018-Jan-18 00:59N 36°28' E 014°01'1212.9
2018-Jan-18 00:00N 36°29' E 013°46'112.8
2018-Jan-17 23:56N 36°30' E 013°45'  
Track history (hours):
 
Tides and Currents Weather Stations Pressure Air Temp Water Temp Dewpoint Dewpoint Depression Visibility Wind Speed Wind Dir Waves Ship Positions

Prospector II

Last reported at 2018-Jan-20 11:33 UTC. Time now 2018-Feb-21 19:37 UTC.
Position N 38°24' E 025°09'.
Warning: this ship's position is 32 days out of date.

Length 209 m; draft 7.3 m.

Type: Tanker. MMSI: 636008251.

Date/timePositionNaut miles runAvg speedWind from/ knotsBaromVisibWave heightAir tempDewpointWater temp
2018-Jan-20 11:33N 38°24' E 025°09'114.4
2018-Jan-20 11:30N 38°24' E 025°09'1811.7
2018-Jan-20 09:56N 38°11' E 024°51'713.4
2018-Jan-20 09:26N 38°15' E 024°58'23 7.9
2018-Jan-20 06:33N 37°58' E 024°39'112.8
2018-Jan-20 06:30N 37°58' E 024°39'613.0
2018-Jan-20 06:01N 37°52' E 024°36'713.1
2018-Jan-20 05:30N 37°46' E 024°32'713.7
2018-Jan-20 05:00N 37°40' E 024°29'713.6
2018-Jan-20 04:30N 37°33' E 024°26'713.2
2018-Jan-20 04:00N 37°28' E 024°21'713.9
2018-Jan-20 03:31N 37°23' E 024°14'713.4
2018-Jan-20 03:01N 37°17' E 024°11'713.8
2018-Jan-20 02:31N 37°11' E 024°09'714.0
2018-Jan-20 02:01N 37°04' E 024°06'714.0
2018-Jan-20 01:30N 36°57' E 024°04'713.8
2018-Jan-20 01:00N 36°50' E 024°01'713.5
2018-Jan-20 00:30N 36°45' E 023°57'713.9
2018-Jan-20 00:00N 36°40' E 023°51'714.1
2018-Jan-19 23:30N 36°34' E 023°45'426 9.8
2018-Jan-18 04:14N 36°25' E 014°56'814.1
2018-Jan-18 03:40N 36°26' E 014°46'313.9
2018-Jan-18 03:28N 36°26' E 014°42'613.7
2018-Jan-18 03:00N 36°27' E 014°34'713.5
2018-Jan-18 02:29N 36°27' E 014°26'713.4
2018-Jan-18 02:00N 36°27' E 014°18'613.1
2018-Jan-18 01:30N 36°28' E 014°10'712.9
2018-Jan-18 00:59N 36°28' E 014°01'1212.9
2018-Jan-18 00:00N 36°29' E 013°46'112.8
2018-Jan-17 23:56N 36°30' E 013°45'  

Dump ship's entire track history